Archival Weather

Republic

Farmingdale, New York (KFRG)

Report from: Friday, February 2, 2024 5:53 PM EST
Current time: Monday, June 17, 2024 4:06 AM EDT

Current weather – Weather history – Daily summaries
Weather forecast

Temperature5.6°C (42.1°F)
Wind chill2.3°C (36.1°F)
Dew point2.2°C (36.0°F)
Winds 9 kts (4.6 m/s, 10.4 mph) North-Northwest (340°)
Visibility10 mi. (16.1 km)
Clouds Ceiling: Overcast 10,000 ft. (3,048 m)
Altimeter29.92 in.Hg (1013 mB)
Relative humidity79 %
Density altitude-1,023 ft. (-312 m)
Sea-level pressure101.3 kPa (1013 mB, 29.92 in.Hg)
Remarks Automated weather observing station without precipitation discriminator
Flight conditions Visual Meteorological Conditions
Raw dataKFRG 022253Z 34009KT 10SM OVC100 06/02 A2992 RMK AO1 SLP131 T00560022
An error has occurred. This application may no longer respond until reloaded. Reload 🗙